Time;durP1;ratioP1;P1;durP2;ratioP2;P2;SDS_P1;SDS_P2;PMS_P1;PMS_P2;Temp;Humidity;BMP_temperature;BMP_pressure;BME280_temperature;BME280_humidity;BME280_pressure;Samples;Min_cycle;Max_cycle;Signal;HPM_P1;HPM_P2
2022/06/05 00:02:34;;;;;;;23.45;13.90;;;11.20;95.20;;;;;;6244572;23;20050;-75
2022/06/05 00:05:11;;;;;;;24.65;14.32;;;11.20;95.50;;;;;;6219805;23;20300;-76
2022/06/05 00:07:47;;;;;;;21.88;15.30;;;11.20;95.10;;;;;;6219209;23;20090;-77
2022/06/05 00:10:24;;;;;;;27.58;13.60;;;11.20;95.60;;;;;;6219190;23;20012;-76
2022/06/05 00:13:00;;;;;;;;;;;11.20;95.60;;;;;;6245475;23;20015;-76
2022/06/05 00:15:27;;;;;;;26.13;14.35;;;11.30;95.60;;;;;;6219254;23;19983;-74
2022/06/05 00:17:53;;;;;;;22.70;12.48;;;11.30;95.00;;;;;;6245044;23;20015;-75
2022/06/05 00:20:19;;;;;;;26.35;12.60;;;11.40;95.10;;;;;;6219308;23;20012;-76
2022/06/05 00:22:46;;;;;;;24.92;12.90;;;11.40;95.00;;;;;;6219549;23;20016;-75
2022/06/05 00:25:13;;;;;;;31.75;13.63;;;11.40;95.10;;;;;;6219095;23;20008;-76
2022/06/05 00:28:01;;;;;;;24.50;13.20;;;11.40;95.40;;;;;;6244807;23;20129;-76
2022/06/05 00:30:53;;;;;;;24.52;13.65;;;11.40;95.20;;;;;;6219064;23;20008;-76
2022/06/05 00:33:19;;;;;;;24.67;13.02;;;11.40;95.40;;;;;;6223161;23;20054;-76
2022/06/05 00:35:57;;;;;;;27.27;12.83;;;11.50;95.20;;;;;;6219034;23;20435;-76
2022/06/05 00:38:49;;;;;;;19.30;12.05;;;11.50;95.30;;;;;;6219139;23;20050;-75
2022/06/05 00:41:36;;;;;;;21.63;12.30;;;11.50;95.10;;;;;;6244334;22;20019;-77
2022/06/05 00:44:03;;;;;;;;;;;11.50;95.40;;;;;;6245382;23;20016;-76
2022/06/05 00:46:29;;;;;;;24.70;11.50;;;11.50;95.30;;;;;;6219475;23;20221;-75
2022/06/05 00:48:55;;;;;;;23.35;12.15;;;11.50;95.30;;;;;;6219357;22;20019;-75
2022/06/05 00:51:21;;;;;;;18.00;10.48;;;11.50;95.10;;;;;;6219170;23;20441;-75
2022/06/05 00:53:48;;;;;;;25.05;12.68;;;11.50;95.10;;;;;;6220895;23;20012;-76
2022/06/05 00:56:15;;;;;;;22.25;11.23;;;11.50;95.30;;;;;;6221051;23;20004;-76
2022/06/05 00:58:41;;;;;;;24.05;10.48;;;11.50;95.10;;;;;;6220834;23;20414;-75
2022/06/05 01:01:07;;;;;;;;;;;11.60;95.10;;;;;;6221536;23;20008;-77
2022/06/05 01:03:33;;;;;;;16.83;10.75;;;11.50;95.30;;;;;;6220733;23;19946;-76
2022/06/05 01:05:58;;;;;;;23.00;10.75;;;11.50;95.30;;;;;;6221461;23;20011;-76
2022/06/05 01:08:25;;;;;;;18.38;10.80;;;11.50;95.10;;;;;;6246365;23;20318;-75
2022/06/05 01:11:04;;;;;;;24.00;11.30;;;11.50;95.20;;;;;;6245975;22;20011;-75
2022/06/05 01:13:38;;;;;;;25.98;11.48;;;11.50;95.20;;;;;;6220016;23;20008;-76
2022/06/05 01:16:25;;;;;;;19.58;10.88;;;11.40;95.40;;;;;;6220929;23;20047;-76
2022/06/05 01:19:15;;;;;;;23.02;11.23;;;11.40;95.60;;;;;;6221122;23;20039;-76
2022/06/05 01:22:18;;;;;;;20.15;10.20;;;11.40;95.40;;;;;;6220627;23;20012;-76
2022/06/05 01:24:57;;;;;;;20.63;10.73;;;11.40;95.50;;;;;;6220663;23;20047;-75
2022/06/05 01:27:27;;;;;;;18.25;9.63;;;11.40;95.40;;;;;;6245201;23;20004;-76
2022/06/05 01:30:11;;;;;;;21.05;10.82;;;11.40;95.50;;;;;;6221180;23;20015;-76
2022/06/05 01:33:07;;;;;;;19.20;10.23;;;11.30;95.80;;;;;;6221258;23;20044;-77
2022/06/05 01:35:46;;;;;;;17.20;10.60;;;11.30;95.30;;;;;;6244649;23;20458;-75
2022/06/05 01:38:29;;;;;;;24.25;10.68;;;11.40;95.70;;;;;;6220192;23;20014;-75
2022/06/05 01:40:59;;;;;;;22.65;11.00;;;11.40;95.30;;;;;;6249030;22;20008;-77
2022/06/05 01:43:34;;;;;;;18.25;10.50;;;11.40;95.40;;;;;;6224107;22;20011;-77
2022/06/05 01:46:25;;;;;;;18.50;10.10;;;11.50;95.50;;;;;;6225524;22;20039;-76
2022/06/05 01:49:09;;;;;;;21.65;10.52;;;11.30;95.60;;;;;;6225778;22;20003;-76
2022/06/05 01:52:01;;;;;;;22.75;10.18;;;11.30;95.70;;;;;;6227835;22;20026;-78
2022/06/05 01:54:32;;;;;;;19.02;11.20;;;11.30;95.80;;;;;;6227270;22;20011;-76
2022/06/05 01:57:01;;;;;;;22.88;12.00;;;11.30;95.80;;;;;;6250368;22;20015;-75
2022/06/05 01:59:55;;;;;;;21.58;10.88;;;11.30;95.90;;;;;;6225944;22;20428;-76
2022/06/05 02:02:31;;;;;;;19.40;10.77;;;11.30;95.90;;;;;;6226124;22;20026;-77
2022/06/05 02:05:06;;;;;;;20.60;11.27;;;11.30;95.50;;;;;;6225197;22;20088;-75
2022/06/05 02:07:45;;;;;;;21.25;11.73;;;11.30;95.90;;;;;;6226155;22;20277;-76
2022/06/05 02:10:14;;;;;;;25.02;11.60;;;11.30;95.90;;;;;;6226218;22;20007;-75
2022/06/05 02:12:40;;;;;;;34.88;12.75;;;11.30;95.80;;;;;;6225085;22;20018;-77
2022/06/05 02:15:07;;;;;;;21.77;12.52;;;11.30;96.00;;;;;;6250794;22;20061;-75
2022/06/05 02:17:36;;;;;;;22.63;11.90;;;11.40;95.60;;;;;;6224762;22;20007;-75
2022/06/05 02:20:06;;;;;;;22.80;12.20;;;11.30;96.00;;;;;;6225282;22;20007;-76
2022/06/05 02:22:48;;;;;;;21.63;12.70;;;11.30;95.90;;;;;;6225574;22;20018;-76
2022/06/05 02:25:16;;;;;;;24.08;12.77;;;11.30;96.10;;;;;;6250935;22;20073;-77
2022/06/05 02:27:42;;;;;;;26.88;13.27;;;11.30;96.10;;;;;;6224262;22;20034;-75
2022/06/05 02:30:13;;;;;;;24.55;13.05;;;11.40;96.10;;;;;;6225107;22;20322;-75
2022/06/05 02:33:09;;;;;;;28.95;14.52;;;11.30;96.20;;;;;;6225255;22;20003;-76
2022/06/05 02:35:53;;;;;;;27.25;13.98;;;11.30;96.40;;;;;;6225135;22;20004;-76
2022/06/05 02:39:07;;;;;;;29.20;14.70;;;11.30;96.30;;;;;;6225597;22;20011;-75
2022/06/05 02:42:05;;;;;;;27.15;14.48;;;11.30;96.40;;;;;;6184734;22;20456;-75
2022/06/05 02:44:46;;;;;;;;;;;11.30;96.70;;;;;;6251269;22;20019;-76
2022/06/05 02:47:33;;;;;;;33.85;17.45;;;11.30;96.80;;;;;;6223369;22;19977;-76
2022/06/05 02:50:13;;;;;;;30.60;16.00;;;11.30;96.90;;;;;;6249082;22;20012;-74
2022/06/05 02:52:44;;;;;;;29.45;15.45;;;11.30;97.00;;;;;;6250580;22;20008;-75
2022/06/05 02:55:14;;;;;;;37.30;17.23;;;11.30;96.60;;;;;;6176156;22;20011;-76
2022/06/05 02:57:42;;;;;;;31.35;16.45;;;11.30;97.00;;;;;;6224601;22;20007;-74
2022/06/05 03:00:14;;;;;;;34.53;16.33;;;11.30;97.00;;;;;;6224941;22;20008;-75
2022/06/05 03:05:24;;;;;;;30.63;16.42;;;11.30;97.20;;;;;;6249562;22;20012;-74
2022/06/05 03:08:06;;;;;;;34.80;17.88;;;11.30;97.00;;;;;;6224870;22;20322;-76
2022/06/05 03:10:32;;;;;;;31.80;16.95;;;11.40;97.00;;;;;;6200474;22;20143;-76
2022/06/05 03:13:01;;;;;;;33.17;16.27;;;11.40;97.10;;;;;;6224322;22;20043;-76
2022/06/05 03:15:32;;;;;;;34.35;17.30;;;11.40;97.20;;;;;;6249821;22;20073;-75
2022/06/05 03:17:57;;;;;;;34.10;16.15;;;11.40;97.30;;;;;;6250274;22;20004;-75
2022/06/05 03:20:24;;;;;;;40.95;17.85;;;11.40;97.30;;;;;;6225299;22;20317;-75
2022/06/05 03:22:50;;;;;;;34.63;16.35;;;11.50;97.50;;;;;;6226707;22;20031;-76
2022/06/05 03:25:23;;;;;;;32.47;16.35;;;11.50;97.30;;;;;;6226452;22;20426;-76
2022/06/05 03:27:54;;;;;;;34.17;16.20;;;11.40;97.40;;;;;;6229061;22;20430;-77
2022/06/05 03:30:20;;;;;;;38.10;16.17;;;11.50;97.20;;;;;;6229288;22;20034;-75
2022/06/05 03:32:46;;;;;;;38.45;17.40;;;11.50;97.20;;;;;;6249153;22;20014;-75
2022/06/05 03:35:14;;;;;;;35.03;18.00;;;11.50;97.30;;;;;;6225470;22;20039;-76
2022/06/05 03:37:39;;;;;;;33.28;17.63;;;11.50;97.50;;;;;;6224983;22;20426;-76
2022/06/05 03:40:15;;;;;;;38.20;18.05;;;11.50;97.50;;;;;;6225313;22;20082;-75
2022/06/05 03:42:41;;;;;;;35.92;18.65;;;11.60;97.50;;;;;;6224522;22;20081;-75
2022/06/05 03:45:15;;;;;;;;;;;11.70;97.40;;;;;;6225634;22;20508;-75
2022/06/05 03:47:46;;;;;;;40.72;18.40;;;11.60;97.60;;;;;;6224447;22;20329;-76
2022/06/05 03:50:14;;;;;;;37.45;18.80;;;11.70;97.50;;;;;;6224480;22;20007;-75
2022/06/05 03:52:41;;;;;;;36.92;17.63;;;11.70;97.70;;;;;;6224269;22;20007;-76
2022/06/05 03:55:07;;;;;;;;;;;11.70;97.70;;;;;;6250482;22;20012;-75
2022/06/05 03:57:33;;;;;;;29.95;16.25;;;11.70;97.70;;;;;;6224523;22;20294;-75
2022/06/05 04:00:03;;;;;;;33.92;15.88;;;11.70;97.50;;;;;;6224571;22;20079;-75
2022/06/05 04:02:34;;;;;;;28.80;14.73;;;11.70;97.80;;;;;;6199810;22;20306;-76
2022/06/05 04:05:04;;;;;;;33.00;14.90;;;11.80;97.40;;;;;;6201517;22;20011;-75
2022/06/05 04:07:33;;;;;;;38.40;16.38;;;11.80;97.60;;;;;;6224260;22;20008;-76
2022/06/05 04:09:58;;;;;;;35.60;16.88;;;11.80;97.90;;;;;;6224560;22;20007;-76
2022/06/05 04:12:24;;;;;;;46.30;19.58;;;11.80;97.80;;;;;;6224601;22;20011;-76
2022/06/05 04:14:55;;;;;;;46.33;19.75;;;11.90;97.90;;;;;;6249746;22;20086;-75
2022/06/05 04:17:21;;;;;;;41.95;19.80;;;11.90;97.50;;;;;;6224366;22;20011;-75
2022/06/05 04:19:47;;;;;;;42.55;20.50;;;12.00;97.50;;;;;;6224858;22;20007;-77
2022/06/05 04:22:13;;;;;;;46.37;23.33;;;12.10;97.50;;;;;;6249849;22;20066;-76
2022/06/05 04:24:38;;;;;;;41.33;21.40;;;12.10;97.80;;;;;;6249869;22;20258;-72
2022/06/05 04:27:04;;;;;;;57.93;20.90;;;12.20;97.70;;;;;;6225844;22;20007;-72
2022/06/05 04:29:32;;;;;;;46.20;18.75;;;12.30;97.40;;;;;;6226309;22;20246;-74
2022/06/05 04:31:58;;;;;;;40.22;17.73;;;12.30;97.60;;;;;;6202752;22;20015;-72
2022/06/05 04:34:24;;;;;;;31.63;16.67;;;12.40;97.50;;;;;;6227096;22;20299;-73
2022/06/05 04:36:50;;;;;;;32.97;15.27;;;12.40;97.50;;;;;;6226653;22;20253;-78
2022/06/05 04:39:16;;;;;;;29.75;14.98;;;12.40;97.60;;;;;;6201574;22;20016;-77
2022/06/05 04:41:45;;;;;;;28.30;14.27;;;12.40;97.50;;;;;;6226726;22;20011;-76
2022/06/05 04:44:13;;;;;;;36.15;15.15;;;12.50;97.60;;;;;;6278326;22;20011;-79
2022/06/05 04:46:39;;;;;;;28.40;14.18;;;12.50;97.40;;;;;;6252016;22;20015;-75
2022/06/05 04:49:08;;;;;;;30.35;15.27;;;12.60;97.50;;;;;;6251971;22;20017;-78
2022/06/05 04:51:36;;;;;;;30.95;15.13;;;12.60;97.40;;;;;;6251762;22;20454;-78
2022/06/05 04:54:03;;;;;;;33.40;14.40;;;12.70;97.50;;;;;;6251663;22;20012;-80
2022/06/05 04:56:30;;;;;;;31.42;15.05;;;12.70;97.00;;;;;;6256043;22;20034;-77
2022/06/05 04:58:56;;;;;;;36.45;14.88;;;12.70;97.00;;;;;;6233746;22;20023;-79
2022/06/05 05:01:24;;;;;;;;;;;12.80;97.00;;;;;;6226273;22;20008;-79
2022/06/05 05:03:59;;;;;;;27.48;14.50;;;12.80;97.00;;;;;;6224534;22;19907;-77
2022/06/05 05:06:28;;;;;;;31.63;15.50;;;12.80;97.20;;;;;;6249736;22;20072;-79
2022/06/05 05:08:54;;;;;;;30.15;13.80;;;12.80;97.20;;;;;;6249870;22;20018;-77
2022/06/05 05:11:21;;;;;;;34.90;14.13;;;12.90;97.20;;;;;;6250873;22;20023;-80
2022/06/05 05:13:47;;;;;;;31.65;14.02;;;12.90;97.10;;;;;;6251805;22;20055;-77
2022/06/05 05:16:13;;;;;;;30.95;15.20;;;13.00;96.90;;;;;;6251930;22;20018;-79
2022/06/05 05:18:39;;;;;;;25.23;14.85;;;13.10;97.10;;;;;;6226419;22;20091;-78
2022/06/05 05:21:17;;;;;;;29.92;13.80;;;13.20;96.90;;;;;;6278525;22;20015;-79
2022/06/05 05:23:44;;;;;;;29.38;14.13;;;13.30;96.70;;;;;;6251665;22;20368;-77
2022/06/05 05:26:15;;;;;;;28.25;13.07;;;13.40;96.50;;;;;;6226467;22;20034;-78
2022/06/05 05:28:42;;;;;;;27.70;14.88;;;13.50;96.40;;;;;;6226145;22;20022;-78
2022/06/05 05:31:10;;;;;;;31.15;14.68;;;13.60;96.40;;;;;;6225541;22;20065;-77
2022/06/05 05:33:37;;;;;;;24.73;13.65;;;13.70;96.20;;;;;;6251775;22;20029;-78
2022/06/05 05:36:03;;;;;;;28.83;14.07;;;13.80;96.30;;;;;;6226079;22;20015;-78
2022/06/05 05:38:29;;;;;;;37.85;13.40;;;13.80;96.00;;;;;;6251230;22;20091;-78
2022/06/05 05:43:39;;;;;;;26.98;13.98;;;14.00;95.80;;;;;;6230134;22;20129;-78
2022/06/05 05:46:09;;;;;;;21.58;13.30;;;14.00;95.60;;;;;;6251001;22;20065;-76
2022/06/05 05:48:34;;;;;;;25.42;12.90;;;14.10;95.70;;;;;;6226147;22;20392;-77
2022/06/05 05:51:00;;;;;;;19.80;12.60;;;14.10;95.50;;;;;;6251237;22;20043;-77
2022/06/05 05:53:26;;;;;;;29.88;12.98;;;14.10;95.60;;;;;;6226222;22;20462;-77
2022/06/05 05:55:51;;;;;;;24.95;12.77;;;14.10;95.50;;;;;;6251248;22;20410;-77
2022/06/05 05:58:17;;;;;;;30.02;11.10;;;14.20;95.20;;;;;;6251291;22;20326;-76
2022/06/05 06:00:43;;;;;;;26.50;12.80;;;14.30;95.30;;;;;;6225713;22;20011;-76
2022/06/05 06:03:08;;;;;;;24.95;12.70;;;14.40;95.30;;;;;;6251170;22;20422;-75
2022/06/05 06:05:34;;;;;;;23.77;11.80;;;14.40;95.20;;;;;;6251016;22;20008;-77
2022/06/05 06:08:00;;;;;;;31.65;14.07;;;14.50;95.00;;;;;;6251246;22;20050;-76
2022/06/05 06:10:26;;;;;;;24.92;12.52;;;14.60;95.10;;;;;;6250998;22;20007;-75
2022/06/05 06:12:51;;;;;;;21.90;11.45;;;14.70;94.60;;;;;;6225867;22;20012;-78
2022/06/05 06:15:17;;;;;;;22.38;11.70;;;14.70;94.40;;;;;;6250696;22;20007;-75
2022/06/05 06:17:43;;;;;;;26.77;11.50;;;14.80;94.40;;;;;;6250979;22;20012;-76
2022/06/05 06:20:09;;;;;;;20.85;12.02;;;14.90;94.50;;;;;;6250885;22;20015;-76
2022/06/05 06:22:35;;;;;;;27.67;12.15;;;15.00;93.90;;;;;;6225763;22;20322;-76
2022/06/05 06:25:04;;;;;;;16.98;11.55;;;15.10;93.90;;;;;;6250831;22;20430;-76
2022/06/05 06:27:29;;;;;;;22.63;11.30;;;15.20;93.20;;;;;;6251331;22;20011;-76
2022/06/05 06:29:55;;;;;;;26.63;11.00;;;15.20;93.50;;;;;;6251676;22;20368;-79
2022/06/05 06:32:21;;;;;;;18.70;11.32;;;15.20;93.20;;;;;;6251634;22;20051;-77
2022/06/05 06:34:47;;;;;;;20.88;11.30;;;15.20;93.00;;;;;;6278308;22;20014;-76
2022/06/05 06:37:12;;;;;;;18.58;10.55;;;15.30;93.00;;;;;;6200429;22;20019;-77
2022/06/05 06:39:41;;;;;;;18.45;11.07;;;15.30;92.50;;;;;;6225761;22;20021;-78
2022/06/05 06:42:06;;;;;;;17.17;11.50;;;15.40;92.60;;;;;;6250268;22;20090;-76
2022/06/05 06:44:32;;;;;;;20.60;10.98;;;15.50;92.00;;;;;;6250281;22;20016;-77
2022/06/05 06:46:58;;;;;;;17.52;10.38;;;15.50;92.00;;;;;;6250765;22;20004;-77
2022/06/05 06:49:23;;;;;;;26.42;11.40;;;15.40;91.80;;;;;;6250495;22;20011;-76
2022/06/05 06:51:49;;;;;;;20.60;10.38;;;15.50;92.00;;;;;;6250315;22;20012;-79
2022/06/05 06:54:15;;;;;;;19.73;11.25;;;15.50;92.10;;;;;;6226082;22;20047;-78
2022/06/05 06:56:42;;;;;;;19.00;11.07;;;15.50;91.60;;;;;;6225648;22;20014;-77
2022/06/05 06:59:08;;;;;;;20.42;10.73;;;15.60;91.70;;;;;;6277330;22;20047;-78
2022/06/05 07:01:34;;;;;;;18.60;10.25;;;15.70;91.80;;;;;;6225646;22;20022;-76
2022/06/05 07:03:59;;;;;;;18.40;10.60;;;15.60;91.70;;;;;;6249924;22;20482;-75
2022/06/05 07:06:25;;;;;;;22.60;11.02;;;15.70;91.80;;;;;;6250366;22;20041;-75
2022/06/05 07:08:51;;;;;;;23.35;11.93;;;15.70;91.70;;;;;;6250768;22;20073;-77
2022/06/05 07:11:18;;;;;;;18.50;11.48;;;15.80;91.40;;;;;;6250026;22;20016;-75
2022/06/05 07:13:44;;;;;;;17.92;10.57;;;15.90;91.40;;;;;;6250767;22;20095;-77
2022/06/05 07:16:11;;;;;;;16.42;10.75;;;16.00;91.10;;;;;;6250536;22;20047;-75
2022/06/05 07:18:37;;;;;;;27.73;11.10;;;16.10;91.30;;;;;;6225388;22;20025;-77
2022/06/05 07:21:11;;;;;;;;;;;16.20;90.90;;;;;;6225770;22;20019;-77
2022/06/05 07:23:36;;;;;;;18.33;9.80;;;16.30;90.40;;;;;;6225581;22;19922;-76
2022/06/05 07:26:03;;;;;;;19.02;11.00;;;16.50;90.70;;;;;;6224852;22;20326;-77
2022/06/05 07:28:28;;;;;;;;;;;16.50;90.20;;;;;;6225253;22;20008;-76
2022/06/05 07:30:54;;;;;;;19.90;10.18;;;16.70;89.50;;;;;;6225122;22;20298;-77
2022/06/05 07:33:23;;;;;;;14.55;9.88;;;16.80;89.70;;;;;;6250245;22;20091;-74
2022/06/05 07:35:55;;;;;;;18.00;10.55;;;16.90;88.70;;;;;;6224560;22;20073;-75
2022/06/05 07:38:27;;;;;;;12.93;9.63;;;16.70;86.80;;;;;;6224956;22;20504;-78
2022/06/05 07:40:52;;;;;;;14.35;9.65;;;16.80;88.00;;;;;;6224533;22;20016;-75
2022/06/05 07:43:21;;;;;;;13.65;10.18;;;16.90;87.70;;;;;;6250428;22;20445;-77
2022/06/05 07:45:47;;;;;;;19.13;10.23;;;17.00;86.90;;;;;;6221599;22;20011;-77
2022/06/05 07:48:18;;;;;;;15.35;10.10;;;17.10;86.50;;;;;;6248888;22;20326;-77
2022/06/05 07:56:12;;;;;;;15.77;10.50;;;17.60;85.10;;;;;;6249274;22;20022;-75
2022/06/05 07:58:38;;;;;;;17.77;10.48;;;17.80;85.30;;;;;;6248971;22;20090;-77
2022/06/05 08:01:07;;;;;;;15.25;9.60;;;17.80;83.40;;;;;;6248187;22;20016;-76
2022/06/05 08:03:34;;;;;;;16.83;9.38;;;18.00;85.00;;;;;;6249003;22;20083;-75
2022/06/05 08:06:03;;;;;;;18.17;9.98;;;18.10;84.30;;;;;;6235782;22;20011;-75
2022/06/05 08:08:28;;;;;;;18.38;10.10;;;18.10;83.50;;;;;;6271627;22;20012;-76
2022/06/05 08:11:02;;;;;;;16.73;9.75;;;18.20;82.80;;;;;;6233496;22;20046;-74
2022/06/05 08:13:28;;;;;;;15.77;10.13;;;18.10;82.10;;;;;;6249179;22;20034;-75
2022/06/05 08:15:53;;;;;;;14.32;9.88;;;18.10;82.00;;;;;;6224131;22;20501;-77
2022/06/05 08:18:19;;;;;;;18.83;10.60;;;18.30;81.90;;;;;;6249397;22;20007;-75
2022/06/05 08:20:45;;;;;;;16.30;10.15;;;18.10;81.60;;;;;;6248959;22;20047;-77
2022/06/05 08:23:10;;;;;;;13.00;9.60;;;18.30;82.10;;;;;;6249435;22;20012;-76
2022/06/05 08:25:36;;;;;;;17.77;9.60;;;18.20;81.70;;;;;;6223620;22;20016;-75
2022/06/05 08:28:02;;;;;;;14.85;9.75;;;18.30;82.20;;;;;;6248977;22;20012;-76
2022/06/05 08:30:28;;;;;;;;;;;18.50;80.80;;;;;;6249135;22;20414;-75
2022/06/05 08:32:54;;;;;;;12.77;9.13;;;18.70;79.90;;;;;;6248545;22;19942;-75
2022/06/05 08:35:19;;;;;;;16.13;9.02;;;18.50;79.10;;;;;;6223529;22;20023;-74
2022/06/05 08:43:39;;;;;;;15.95;10.18;;;18.70;79.70;;;;;;6249214;22;20049;-76
2022/06/05 08:46:18;;;;;;;17.83;10.25;;;18.80;79.70;;;;;;6249911;22;20023;-78
2022/06/05 08:49:15;;;;;;;13.73;9.38;;;18.90;79.30;;;;;;6249112;22;20448;-76
2022/06/05 08:51:52;;;;;;;13.07;9.25;;;18.90;79.40;;;;;;6224440;22;20008;-78
2022/06/05 08:54:34;;;;;;;13.30;9.60;;;18.90;79.80;;;;;;6252242;22;20087;-77
2022/06/05 08:57:04;;;;;;;13.52;10.23;;;19.00;79.40;;;;;;6249847;22;20012;-76
2022/06/05 08:59:41;;;;;;;15.80;10.20;;;19.10;78.80;;;;;;6250353;22;20047;-76
2022/06/05 09:02:30;;;;;;;;;;;19.20;79.50;;;;;;6225669;22;20023;-79
2022/06/05 09:05:06;;;;;;;13.55;10.05;;;19.20;80.00;;;;;;6249855;22;19915;-78
2022/06/05 09:07:45;;;;;;;13.27;10.00;;;19.30;79.30;;;;;;6224747;22;20012;-76
2022/06/05 09:10:38;;;;;;;14.23;9.23;;;19.40;78.20;;;;;;6249445;22;20015;-76
2022/06/05 09:13:30;;;;;;;12.95;9.43;;;19.30;77.20;;;;;;6215077;22;20070;-75
2022/06/05 09:16:02;;;;;;;18.23;10.32;;;19.50;77.20;;;;;;6251822;22;20011;-76
2022/06/05 09:18:38;;;;;;;18.50;10.38;;;19.50;77.70;;;;;;6251732;22;20008;-75
2022/06/05 09:21:18;;;;;;;16.80;10.18;;;19.80;77.40;;;;;;6226272;22;20434;-76
2022/06/05 09:24:05;;;;;;;13.30;10.40;;;19.90;77.00;;;;;;6251590;22;20012;-77
2022/06/05 09:26:38;;;;;;;12.25;10.05;;;20.10;76.60;;;;;;6226093;22;20022;-76
2022/06/05 09:29:16;;;;;;;16.38;10.43;;;20.00;75.00;;;;;;6225904;22;20062;-75
2022/06/05 09:32:21;;;;;;;14.07;10.00;;;20.10;75.50;;;;;;6251265;22;20043;-77
2022/06/05 09:34:53;;;;;;;13.93;10.13;;;20.30;74.90;;;;;;6251073;22;20065;-75
2022/06/05 09:37:35;;;;;;;12.65;9.27;;;20.40;75.80;;;;;;6251655;22;20003;-75
2022/06/05 09:40:03;;;;;;;12.88;9.82;;;20.60;74.70;;;;;;6225891;22;20012;-75
2022/06/05 09:42:45;;;;;;;14.20;10.40;;;20.30;74.40;;;;;;6251125;22;20087;-75
2022/06/05 09:45:36;;;;;;;13.80;9.48;;;20.40;73.60;;;;;;6226048;22;20066;-76
2022/06/05 09:48:14;;;;;;;15.80;9.60;;;20.50;74.80;;;;;;6276734;22;20482;-75
2022/06/05 09:50:41;;;;;;;13.95;9.80;;;20.80;75.50;;;;;;6251122;22;20057;-76
2022/06/05 09:53:20;;;;;;;12.93;9.27;;;20.80;72.10;;;;;;6251270;22;20098;-74
2022/06/05 09:56:24;;;;;;;16.42;9.88;;;20.80;72.50;;;;;;6251230;22;20559;-76
2022/06/05 09:59:17;;;;;;;11.68;9.48;;;20.90;72.40;;;;;;6250863;22;20012;-75
2022/06/05 10:01:59;;;;;;;19.48;9.63;;;20.90;72.90;;;;;;6250869;22;20070;-76
2022/06/05 10:04:31;;;;;;;14.13;8.80;;;20.60;74.40;;;;;;6225781;22;20015;-77
2022/06/05 10:07:06;;;;;;;14.20;9.07;;;20.60;72.30;;;;;;6225890;22;20016;-75
2022/06/05 10:09:35;;;;;;;13.63;9.75;;;20.80;73.40;;;;;;6251200;22;20014;-76
2022/06/05 10:12:07;;;;;;;13.13;8.90;;;20.70;74.00;;;;;;6251002;22;20358;-77
2022/06/05 10:14:42;;;;;;;15.07;9.80;;;20.70;73.80;;;;;;6251179;22;20069;-77
2022/06/05 10:17:26;;;;;;;17.10;9.68;;;20.60;73.00;;;;;;6250852;22;20012;-76
2022/06/05 10:20:00;;;;;;;12.20;9.63;;;20.60;73.00;;;;;;6250531;22;20448;-76
2022/06/05 10:22:37;;;;;;;13.90;9.40;;;20.60;73.90;;;;;;6250837;22;20430;-75
2022/06/05 10:25:25;;;;;;;15.32;9.40;;;20.60;73.30;;;;;;6225698;22;20003;-76
2022/06/05 10:27:54;;;;;;;12.15;8.23;;;20.60;73.80;;;;;;6250983;22;20012;-78
2022/06/05 10:30:26;;;;;;;15.38;8.77;;;20.70;74.70;;;;;;6267282;22;20011;-76
2022/06/05 10:33:11;;;;;;;12.85;9.07;;;20.70;73.70;;;;;;6263615;22;20053;-76
2022/06/05 10:35:54;;;;;;;16.80;8.40;;;20.70;74.40;;;;;;6249074;22;20019;-76
2022/06/05 10:38:26;;;;;;;11.90;9.00;;;20.60;74.80;;;;;;6250155;22;20023;-75
2022/06/05 10:40:58;;;;;;;16.05;8.90;;;20.60;74.90;;;;;;6249312;22;20008;-74
2022/06/05 10:43:28;;;;;;;11.60;9.02;;;20.70;74.30;;;;;;6249374;22;20061;-77
2022/06/05 10:46:18;;;;;;;11.00;8.27;;;20.60;74.20;;;;;;6249424;22;20074;-77
2022/06/05 10:48:59;;;;;;;12.90;8.75;;;20.60;75.50;;;;;;6249675;22;20003;-75
2022/06/05 10:51:39;;;;;;;14.57;8.63;;;20.60;75.30;;;;;;6248993;22;20012;-76
2022/06/05 10:54:14;;;;;;;14.18;7.85;;;20.60;75.00;;;;;;6249991;22;20054;-77
2022/06/05 10:56:55;;;;;;;13.93;7.90;;;20.70;75.60;;;;;;6224160;22;20017;-75
2022/06/05 10:59:55;;;;;;;12.73;7.65;;;20.80;75.20;;;;;;6250025;22;20059;-75
2022/06/05 11:02:44;;;;;;;11.73;7.57;;;20.90;75.20;;;;;;6204334;22;20018;-75
2022/06/05 11:05:41;;;;;;;10.13;7.53;;;21.00;75.50;;;;;;6250875;22;20012;-75
2022/06/05 11:08:15;;;;;;;;;;;21.20;75.30;;;;;;6252015;22;20010;-76
2022/06/05 11:14:21;;;;;;;12.93;9.20;;;21.10;75.20;;;;;;6251083;22;20292;-77
2022/06/05 11:17:11;;;;;;;14.53;9.67;;;21.20;76.20;;;;;;6250463;22;20011;-77
2022/06/05 11:20:07;;;;;;;13.18;9.55;;;21.20;77.30;;;;;;6225786;22;20011;-74
2022/06/05 11:22:37;;;;;;;11.93;9.65;;;21.10;77.60;;;;;;6250628;22;20325;-79
2022/06/05 11:25:25;;;;;;;17.33;10.82;;;21.20;77.80;;;;;;6250518;22;20087;-76
2022/06/05 11:27:59;;;;;;;14.40;11.00;;;21.30;78.30;;;;;;6249924;22;20351;-78
2022/06/05 11:30:56;;;;;;;19.85;11.02;;;21.30;77.80;;;;;;6224629;22;20004;-77
2022/06/05 11:33:27;;;;;;;17.40;10.20;;;21.40;77.80;;;;;;6222931;22;20053;-76
2022/06/05 11:40:09;;;;;;;15.25;9.55;;;21.20;77.90;;;;;;6276721;22;20016;-76
2022/06/05 11:42:54;;;;;;;15.50;9.73;;;21.40;77.20;;;;;;6162787;23;20054;-77
2022/06/05 11:45:30;;;;;;;16.77;8.93;;;21.40;78.10;;;;;;6194621;23;20012;-74
2022/06/05 11:48:28;;;;;;;17.80;9.68;;;21.40;77.70;;;;;;6194318;23;20008;-72
2022/06/05 11:51:05;;;;;;;21.60;10.02;;;21.50;77.10;;;;;;6219296;23;20300;-73
2022/06/05 12:01:08;;;;;;;19.92;10.15;;;21.40;78.90;;;;;;6124754;23;20071;-76
2022/06/05 12:04:36;;;;;;;15.65;9.82;;;21.30;78.40;;;;;;6157757;23;20583;-79
2022/06/05 12:10:28;;;;;;;20.80;9.40;;;21.20;79.30;;;;;;6186780;22;20019;-74
2022/06/05 12:13:27;;;;;;;16.08;9.77;;;21.30;79.00;;;;;;6221218;23;20373;-73
2022/06/05 12:15:58;;;;;;;17.70;9.48;;;21.30;78.90;;;;;;6193235;23;20004;-78
2022/06/05 12:26:35;;;;;;;18.30;9.80;;;21.20;79.80;;;;;;6276203;22;20329;-70
2022/06/05 12:29:31;;;;;;;20.20;10.13;;;21.10;80.40;;;;;;6115237;22;20463;-79
2022/06/05 12:32:11;;;;;;;23.58;10.85;;;21.10;80.00;;;;;;6250968;22;20015;-76
2022/06/05 12:34:51;;;;;;;20.70;10.55;;;21.00;80.10;;;;;;6219401;23;20023;-76
2022/06/05 12:37:27;;;;;;;19.50;10.30;;;20.90;80.90;;;;;;6195974;23;20087;-79
2022/06/05 12:39:55;;;;;;;30.15;11.63;;;20.90;81.10;;;;;;6244192;23;20430;-77
2022/06/05 12:42:27;;;;;;;24.05;12.05;;;20.80;81.40;;;;;;6219771;23;20095;-79
2022/06/05 12:44:57;;;;;;;20.58;11.02;;;20.60;82.00;;;;;;6220011;23;20004;-79
2022/06/05 12:47:25;;;;;;;22.23;10.80;;;20.50;82.10;;;;;;6244862;23;20066;-78
2022/06/05 12:49:54;;;;;;;28.67;10.88;;;20.50;82.50;;;;;;6246863;23;20004;-76
2022/06/05 12:52:22;;;;;;;18.77;10.85;;;20.50;82.70;;;;;;6221793;23;20414;-78
2022/06/05 12:55:07;;;;;;;19.83;11.23;;;20.60;82.70;;;;;;6246556;23;20047;-79
2022/06/05 12:57:52;;;;;;;20.85;10.82;;;20.50;83.10;;;;;;6221794;23;20008;-78
2022/06/05 13:00:26;;;;;;;17.23;9.93;;;20.60;82.60;;;;;;6221468;22;20031;-78
2022/06/05 13:03:12;;;;;;;19.88;10.43;;;20.70;82.30;;;;;;6221804;23;20415;-77
2022/06/05 13:05:47;;;;;;;23.98;10.48;;;20.70;82.20;;;;;;6221239;23;20050;-76
2022/06/05 13:08:24;;;;;;;16.63;9.93;;;20.80;82.20;;;;;;6221773;23;20055;-77
2022/06/05 13:11:19;;;;;;;16.63;9.68;;;20.90;81.70;;;;;;6246939;22;20035;-78
2022/06/05 13:14:15;;;;;;;19.45;10.02;;;21.00;81.20;;;;;;6221294;23;20094;-79
2022/06/05 13:17:09;;;;;;;24.70;10.50;;;21.10;80.70;;;;;;6246401;23;20016;-78
2022/06/05 13:19:56;;;;;;;17.60;10.25;;;21.20;80.50;;;;;;6246749;23;20012;-77
2022/06/05 13:22:49;;;;;;;21.77;9.70;;;21.20;80.50;;;;;;6220761;23;20395;-78
2022/06/05 13:25:21;;;;;;;22.17;10.68;;;21.30;80.40;;;;;;6246182;23;20048;-77
2022/06/05 13:27:59;;;;;;;19.73;10.90;;;21.40;80.30;;;;;;6221513;23;20288;-77
2022/06/05 13:30:28;;;;;;;22.05;10.57;;;21.60;78.80;;;;;;6246302;22;20330;-77
2022/06/05 13:33:02;;;;;;;19.50;10.00;;;21.40;79.30;;;;;;6220738;23;20008;-76
2022/06/05 13:35:51;;;;;;;15.30;9.90;;;21.40;79.20;;;;;;6246284;23;20062;-78
2022/06/05 13:38:39;;;;;;;20.05;11.05;;;21.50;78.30;;;;;;6246663;23;20292;-78
2022/06/05 13:41:25;;;;;;;21.52;10.95;;;21.30;78.80;;;;;;6220678;23;20008;-79
2022/06/05 13:44:20;;;;;;;19.73;9.98;;;21.20;79.90;;;;;;6225613;23;20035;-78
2022/06/05 13:47:10;;;;;;;20.83;11.50;;;21.30;79.30;;;;;;6200303;23;20012;-78
2022/06/05 13:50:06;;;;;;;21.10;10.32;;;21.00;79.20;;;;;;6220942;23;20053;-79
2022/06/05 13:52:38;;;;;;;23.15;10.77;;;21.00;80.30;;;;;;6246615;22;20043;-77